Time;durP1;ratioP1;P1;durP2;ratioP2;P2;SDS_P1;SDS_P2;PMS_P1;PMS_P2;Temp;Humidity;BMP_temperature;BMP_pressure;BME280_temperature;BME280_humidity;BME280_pressure;Samples;Min_cycle;Max_cycle;Signal;HPM_P1;HPM_P2
2022/04/14 00:01:46;;;;;;;4.15;3.22;;;20.80;42.10;;;;;;1841441;77;21098;-71
2022/04/14 00:04:11;;;;;;;4.22;3.22;;;20.70;42.10;;;;;;1841473;77;21150;-68
2022/04/14 00:06:38;;;;;;;7.17;3.12;;;20.80;42.10;;;;;;1841073;77;21032;-72
2022/04/14 00:09:05;;;;;;;3.80;2.95;;;20.70;42.10;;;;;;1840567;77;21113;-71
2022/04/14 00:11:33;;;;;;;4.40;3.22;;;20.70;42.10;;;;;;1843090;77;21090;-73
2022/04/14 00:14:00;;;;;;;5.12;3.50;;;20.70;42.10;;;;;;1842061;76;21166;-72
2022/04/14 00:16:27;;;;;;;4.45;2.98;;;20.70;42.10;;;;;;1842142;77;21110;-72
2022/04/14 00:18:55;;;;;;;5.22;3.50;;;20.70;42.10;;;;;;1842369;77;21129;-71
2022/04/14 00:21:22;;;;;;;4.45;3.05;;;20.70;42.10;;;;;;1844613;77;21108;-71
2022/04/14 00:23:49;;;;;;;4.03;2.98;;;20.70;42.10;;;;;;1843567;76;21145;-71
2022/04/14 00:26:17;;;;;;;3.87;2.87;;;20.70;42.10;;;;;;1843219;78;21102;-72
2022/04/14 00:28:46;;;;;;;4.60;3.08;;;20.70;42.10;;;;;;1840852;77;21176;-68
2022/04/14 00:31:13;;;;;;;4.67;3.30;;;20.70;42.10;;;;;;1840402;77;21059;-73
2022/04/14 00:33:40;;;;;;;5.15;3.08;;;20.70;42.40;;;;;;1842001;76;21131;-72
2022/04/14 00:36:07;;;;;;;2.95;2.50;;;20.60;42.10;;;;;;1840249;77;21091;-71
2022/04/14 00:38:35;;;;;;;6.58;3.27;;;20.70;42.20;;;;;;1840206;77;21184;-73
2022/04/14 00:41:02;;;;;;;6.45;3.75;;;20.70;42.10;;;;;;1840432;77;21075;-70
2022/04/14 00:43:31;;;;;;;5.28;3.20;;;20.60;42.10;;;;;;1840573;76;21200;-70
2022/04/14 00:46:00;;;;;;;4.58;3.25;;;20.60;42.10;;;;;;1841729;78;21117;-71
2022/04/14 00:58:10;;;;;;;3.90;3.33;;;20.60;42.10;;;;;;1842006;78;21091;-73
2022/04/14 01:00:38;;;;;;;5.62;3.42;;;20.60;42.10;;;;;;1842490;78;21153;-71
2022/04/14 01:03:05;;;;;;;6.12;3.02;;;20.60;42.10;;;;;;1843480;76;21188;-72
2022/04/14 01:05:33;;;;;;;5.37;3.62;;;20.60;42.10;;;;;;1836080;78;21107;-73
2022/04/14 01:08:00;;;;;;;4.08;3.12;;;20.60;42.10;;;;;;1845764;78;21158;-71
2022/04/14 01:10:28;;;;;;;5.45;3.60;;;20.60;42.60;;;;;;1845330;78;21678;-72
2022/04/14 01:12:55;;;;;;;6.20;3.55;;;20.60;42.10;;;;;;1845290;76;21141;-72
2022/04/14 01:15:22;;;;;;;4.70;3.40;;;20.60;42.10;;;;;;1845180;78;21624;-71
2022/04/14 01:17:50;;;;;;;4.33;3.15;;;20.60;42.10;;;;;;1845133;78;21113;-71
2022/04/14 01:20:17;;;;;;;5.20;3.22;;;20.60;42.10;;;;;;1845298;78;22309;-71
2022/04/14 01:22:54;;;;;;;4.42;3.50;;;20.60;42.10;;;;;;1845352;76;21573;-72
2022/04/14 01:25:21;;;;;;;4.12;3.30;;;20.60;42.10;;;;;;1845572;77;21141;-71
2022/04/14 01:27:50;;;;;;;6.00;4.15;;;20.60;42.10;;;;;;1845618;78;21126;-72
2022/04/14 01:30:17;;;;;;;4.35;3.40;;;20.60;42.10;;;;;;1845564;77;21106;-71
2022/04/14 01:32:44;;;;;;;4.05;3.10;;;20.60;42.10;;;;;;1845413;76;21208;-68
2022/04/14 01:35:12;;;;;;;4.80;3.17;;;20.60;42.10;;;;;;1845660;77;21200;-71
2022/04/14 01:37:39;;;;;;;5.53;3.27;;;20.60;42.40;;;;;;1845558;78;21117;-70
2022/04/14 01:40:08;;;;;;;7.05;3.42;;;20.60;42.20;;;;;;1845789;78;21039;-72
2022/04/14 01:42:35;;;;;;;5.12;3.50;;;20.60;42.10;;;;;;1845943;76;21122;-71
2022/04/14 01:45:03;;;;;;;5.15;3.05;;;20.60;42.10;;;;;;1845712;78;21048;-73
2022/04/14 01:47:30;;;;;;;4.70;3.47;;;20.50;42.00;;;;;;1845849;78;21640;-72
2022/04/14 01:49:57;;;;;;;4.90;3.47;;;20.50;42.00;;;;;;1845669;78;21103;-70
2022/04/14 01:52:25;;;;;;;3.58;3.22;;;20.50;42.10;;;;;;1845539;76;21607;-71
2022/04/14 01:54:52;;;;;;;5.33;3.95;;;20.60;42.10;;;;;;1845133;78;21156;-69
2022/04/14 01:57:19;;;;;;;5.28;3.40;;;20.50;42.10;;;;;;1844057;77;21683;-67
2022/04/14 01:59:46;;;;;;;4.25;3.50;;;20.50;42.00;;;;;;1841849;78;21122;-70
2022/04/14 02:02:14;;;;;;;4.92;2.77;;;20.50;42.10;;;;;;1842036;76;21679;-71
2022/04/14 02:04:42;;;;;;;6.35;3.65;;;20.50;42.10;;;;;;1840190;77;21122;-71
2022/04/14 02:07:10;;;;;;;7.05;3.72;;;20.50;42.10;;;;;;1841924;77;21124;-69
2022/04/14 02:09:38;;;;;;;5.03;3.27;;;20.50;42.10;;;;;;1840645;77;21196;-68
2022/04/14 02:12:06;;;;;;;5.35;3.75;;;20.50;42.10;;;;;;1840423;76;21133;-72
2022/04/14 02:14:33;;;;;;;4.45;3.95;;;20.50;42.10;;;;;;1840760;77;21157;-71
2022/04/14 02:17:00;;;;;;;6.10;3.80;;;20.50;42.10;;;;;;1840667;77;21079;-71
2022/04/14 02:19:27;;;;;;;4.15;3.33;;;20.50;42.10;;;;;;1839855;77;21435;-72
2022/04/14 02:21:58;;;;;;;6.10;3.42;;;20.50;42.10;;;;;;1843387;76;21075;-69
2022/04/14 02:24:24;;;;;;;4.90;3.47;;;20.50;42.10;;;;;;1843514;77;21537;-71
2022/04/14 02:26:51;;;;;;;5.22;3.95;;;20.50;42.10;;;;;;1845046;78;21126;-71
2022/04/14 02:29:19;;;;;;;5.20;3.50;;;20.50;42.10;;;;;;1844344;77;21098;-72
2022/04/14 02:31:46;;;;;;;7.12;3.45;;;20.50;42.10;;;;;;1843803;76;21098;-68
2022/04/14 02:34:14;;;;;;;6.47;3.00;;;20.50;42.10;;;;;;1843544;78;21557;-72
2022/04/14 02:36:41;;;;;;;5.17;3.52;;;20.50;42.10;;;;;;1843692;77;21106;-73
2022/04/14 02:39:09;;;;;;;5.28;3.17;;;20.50;42.10;;;;;;1843295;78;21575;-71
2022/04/14 02:41:37;;;;;;;4.72;3.33;;;20.50;42.10;;;;;;1843687;77;21729;-67
2022/04/14 02:44:04;;;;;;;4.72;3.60;;;20.50;42.20;;;;;;1844409;76;21204;-69
2022/04/14 02:46:31;;;;;;;4.17;3.27;;;20.50;42.10;;;;;;1842533;78;21110;-69
2022/04/14 02:48:59;;;;;;;4.87;3.45;;;20.50;42.10;;;;;;1842952;77;21122;-72
2022/04/14 02:51:26;;;;;;;4.90;3.20;;;20.40;42.10;;;;;;1844837;78;21074;-71
2022/04/14 02:53:53;;;;;;;5.30;3.35;;;20.40;42.20;;;;;;1843466;76;21157;-71
2022/04/14 02:56:21;;;;;;;6.35;3.75;;;20.40;42.20;;;;;;1843525;78;21110;-69
2022/04/14 02:58:48;;;;;;;5.03;3.90;;;20.40;42.20;;;;;;1843908;76;21427;-71
2022/04/14 03:01:15;;;;;;;4.10;3.40;;;20.40;42.20;;;;;;1844499;78;21102;-70
2022/04/14 03:03:43;;;;;;;5.03;3.92;;;20.40;42.10;;;;;;1843096;77;21431;-71
2022/04/14 03:06:10;;;;;;;5.42;3.55;;;20.40;42.10;;;;;;1842657;77;21118;-73
2022/04/14 03:08:37;;;;;;;7.97;4.45;;;20.40;42.20;;;;;;1840354;78;21125;-71
2022/04/14 03:11:05;;;;;;;4.35;3.47;;;20.40;42.10;;;;;;1840506;78;21632;-73
2022/04/14 03:13:32;;;;;;;5.12;4.12;;;20.40;42.20;;;;;;1840229;76;21141;-72
2022/04/14 03:15:59;;;;;;;4.87;3.90;;;20.40;42.70;;;;;;1843939;77;22219;-72
2022/04/14 03:18:27;;;;;;;5.53;3.87;;;20.40;42.60;;;;;;1840171;78;21059;-71
2022/04/14 03:20:54;;;;;;;5.67;4.15;;;20.40;42.10;;;;;;1841080;77;21530;-71
2022/04/14 03:23:21;;;;;;;7.00;4.17;;;20.40;42.20;;;;;;1845112;76;21113;-70
2022/04/14 03:25:49;;;;;;;5.28;3.60;;;20.40;42.20;;;;;;1843353;77;21553;-72
2022/04/14 03:28:17;;;;;;;4.62;3.67;;;20.40;42.20;;;;;;1845917;78;21518;-69
2022/04/14 03:30:45;;;;;;;5.08;3.47;;;20.40;42.30;;;;;;1843412;77;21227;-70
2022/04/14 03:33:12;;;;;;;4.80;3.60;;;20.40;42.20;;;;;;1845153;76;21126;-72
2022/04/14 03:35:39;;;;;;;6.80;3.98;;;20.40;42.20;;;;;;1843101;77;21730;-71
2022/04/14 03:38:07;;;;;;;5.60;3.95;;;20.40;42.20;;;;;;1843989;77;21091;-72
2022/04/14 03:40:34;;;;;;;4.50;3.30;;;20.40;42.20;;;;;;1844027;78;21556;-69
2022/04/14 03:43:02;;;;;;;6.65;4.55;;;20.40;42.20;;;;;;1843521;77;21166;-71
2022/04/14 03:45:29;;;;;;;5.65;4.10;;;20.30;42.20;;;;;;1843497;78;21114;-66
2022/04/14 03:47:56;;;;;;;6.62;3.72;;;20.40;42.20;;;;;;1842469;77;21130;-71
2022/04/14 03:50:23;;;;;;;5.08;4.17;;;20.40;42.30;;;;;;1843481;77;21102;-72
2022/04/14 03:52:51;;;;;;;4.87;3.65;;;20.40;42.10;;;;;;1840295;76;21220;-71
2022/04/14 03:55:18;;;;;;;6.05;3.95;;;20.40;42.80;;;;;;1844977;78;21102;-71
2022/04/14 03:57:45;;;;;;;4.60;3.62;;;20.40;42.20;;;;;;1844917;75;21127;-71
2022/04/14 04:00:13;;;;;;;6.60;3.47;;;20.40;42.50;;;;;;1840481;77;21121;-70
2022/04/14 04:02:41;;;;;;;5.45;4.12;;;20.40;42.10;;;;;;1842643;76;21143;-71
2022/04/14 04:05:09;;;;;;;5.67;4.35;;;20.40;42.20;;;;;;1841036;77;21122;-71
2022/04/14 04:07:36;;;;;;;4.92;4.00;;;20.40;42.20;;;;;;1846005;78;21172;-70
2022/04/14 04:10:04;;;;;;;6.78;3.95;;;20.40;42.10;;;;;;1844839;77;21793;-67
2022/04/14 04:12:31;;;;;;;4.80;4.05;;;20.30;42.10;;;;;;1843510;77;21224;-71
2022/04/14 04:14:59;;;;;;;5.58;4.35;;;20.40;42.20;;;;;;1841020;77;21298;-73
2022/04/14 04:17:26;;;;;;;5.50;3.33;;;20.40;42.10;;;;;;1843356;78;21110;-70
2022/04/14 04:19:55;;;;;;;4.97;3.62;;;20.30;42.20;;;;;;1843529;77;21114;-72
2022/04/14 04:22:22;;;;;;;5.33;3.70;;;20.30;42.20;;;;;;1840210;76;21243;-72
2022/04/14 04:24:49;;;;;;;5.70;3.60;;;20.30;42.20;;;;;;1839936;78;21161;-73
2022/04/14 04:27:17;;;;;;;8.33;4.05;;;20.30;42.20;;;;;;1842472;78;21180;-70
2022/04/14 04:29:44;;;;;;;5.28;3.85;;;20.30;42.20;;;;;;1843406;77;21110;-70
2022/04/14 04:32:11;;;;;;;4.37;3.75;;;20.30;42.30;;;;;;1844212;76;21148;-69
2022/04/14 04:34:38;;;;;;;4.28;3.72;;;20.30;42.20;;;;;;1840672;77;21103;-69
2022/04/14 04:37:06;;;;;;;7.05;3.90;;;20.30;42.20;;;;;;1842043;78;21110;-72
2022/04/14 04:39:33;;;;;;;5.22;3.70;;;20.40;42.10;;;;;;1842550;77;21168;-71
2022/04/14 04:42:00;;;;;;;6.20;3.75;;;20.30;42.20;;;;;;1843764;76;21055;-70
2022/04/14 04:44:28;;;;;;;4.87;3.80;;;20.30;42.10;;;;;;1840104;78;21160;-73
2022/04/14 04:46:55;;;;;;;5.58;3.50;;;20.30;42.70;;;;;;1840097;78;21090;-72
2022/04/14 04:49:22;;;;;;;4.40;3.60;;;20.30;42.10;;;;;;1842431;77;21106;-72
2022/04/14 04:51:50;;;;;;;4.15;3.72;;;20.30;42.20;;;;;;1828318;76;21103;-72
2022/04/14 04:54:17;;;;;;;5.67;4.00;;;20.30;42.20;;;;;;1842811;77;21136;-70
2022/04/14 04:56:44;;;;;;;6.55;3.98;;;20.30;42.40;;;;;;1839162;76;21116;-71
2022/04/14 04:59:11;;;;;;;6.30;3.98;;;20.30;42.10;;;;;;1843040;76;21155;-71
2022/04/14 05:01:39;;;;;;;4.97;3.77;;;20.30;42.20;;;;;;1842895;77;21390;-71
2022/04/14 05:04:06;;;;;;;4.62;3.50;;;20.30;42.20;;;;;;1843455;76;21179;-72
2022/04/14 05:06:33;;;;;;;3.20;2.83;;;20.30;42.20;;;;;;1847114;76;21102;-73
2022/04/14 05:09:01;;;;;;;6.70;3.52;;;20.30;42.10;;;;;;1870981;76;21123;-71
2022/04/14 05:11:28;;;;;;;5.10;3.87;;;20.30;42.20;;;;;;1870958;76;21117;-71
2022/04/14 05:13:55;;;;;;;7.00;3.70;;;20.30;42.20;;;;;;1873831;76;21243;-65
2022/04/14 05:16:23;;;;;;;5.20;3.35;;;20.30;42.30;;;;;;1876210;76;21105;-73
2022/04/14 05:18:50;;;;;;;8.95;3.45;;;20.30;42.10;;;;;;1876954;76;21207;-69
2022/04/14 05:21:17;;;;;;;8.43;4.20;;;20.30;42.20;;;;;;1877452;76;21187;-70
2022/04/14 05:23:45;;;;;;;10.65;4.10;;;20.30;42.10;;;;;;1877377;76;21165;-71
2022/04/14 05:26:12;;;;;;;3.90;3.30;;;20.30;42.20;;;;;;1876750;76;21101;-70
2022/04/14 05:28:39;;;;;;;4.33;3.22;;;20.30;42.20;;;;;;1877170;76;21427;-69
2022/04/14 05:31:07;;;;;;;8.13;3.70;;;20.30;42.10;;;;;;1876935;76;21113;-72
2022/04/14 05:33:34;;;;;;;7.78;3.85;;;20.30;42.20;;;;;;1877023;76;21385;-68
2022/04/14 05:36:01;;;;;;;9.48;4.67;;;20.30;42.10;;;;;;1876976;76;21105;-74
2022/04/14 05:38:29;;;;;;;4.55;3.50;;;20.30;42.10;;;;;;1876531;76;21031;-74
2022/04/14 05:40:56;;;;;;;7.75;3.67;;;20.40;42.20;;;;;;1876660;76;21106;-71
2022/04/14 05:43:28;;;;;;;8.40;3.87;;;20.40;42.20;;;;;;1876801;76;21043;-73
2022/04/14 05:45:55;;;;;;;5.83;4.03;;;20.40;42.10;;;;;;1877100;76;21179;-71
2022/04/14 05:48:23;;;;;;;7.62;4.20;;;20.40;42.10;;;;;;1876296;76;21505;-69
2022/04/14 05:50:50;;;;;;;7.55;5.28;;;20.30;42.10;;;;;;1876288;76;21137;-71
2022/04/14 05:53:20;;;;;;;7.50;4.28;;;20.40;42.20;;;;;;1876447;76;21118;-70
2022/04/14 05:55:47;;;;;;;7.47;3.65;;;20.30;42.20;;;;;;1876397;76;21122;-74
2022/04/14 05:58:16;;;;;;;5.58;4.20;;;20.30;42.10;;;;;;1877050;76;21113;-74
2022/04/14 06:00:43;;;;;;;8.23;4.28;;;20.40;42.10;;;;;;1861925;76;21130;-73
2022/04/14 06:03:11;;;;;;;7.25;4.17;;;20.30;42.10;;;;;;1839500;76;21165;-73
2022/04/14 06:05:38;;;;;;;7.72;3.98;;;20.30;42.30;;;;;;1833401;78;21151;-71
2022/04/14 06:08:06;;;;;;;7.50;4.55;;;20.40;42.20;;;;;;1819672;78;21510;-74
2022/04/14 06:10:35;;;;;;;5.25;3.85;;;20.40;42.20;;;;;;1814207;77;21892;-71
2022/04/14 06:13:03;;;;;;;4.72;3.77;;;20.40;42.20;;;;;;1826188;78;21106;-74
2022/04/14 06:15:31;;;;;;;6.10;4.50;;;20.40;42.20;;;;;;1818656;77;21137;-74
2022/04/14 06:17:58;;;;;;;4.80;4.25;;;20.30;42.20;;;;;;1815091;77;21164;-72
2022/04/14 06:20:26;;;;;;;10.13;4.92;;;20.40;42.30;;;;;;1819986;76;21150;-73
2022/04/14 06:22:55;;;;;;;7.08;3.70;;;20.30;42.20;;;;;;1817043;78;21595;-73
2022/04/14 06:25:25;;;;;;;6.42;4.03;;;20.40;42.20;;;;;;1827079;77;21199;-74
2022/04/14 06:27:53;;;;;;;7.50;4.55;;;20.40;42.30;;;;;;1827983;78;21123;-72
2022/04/14 06:30:21;;;;;;;6.47;4.10;;;20.40;42.30;;;;;;1825274;78;21618;-73
2022/04/14 06:33:02;;;;;;;5.78;4.08;;;20.40;42.30;;;;;;1828354;77;21344;-72
2022/04/14 06:35:29;;;;;;;6.33;4.40;;;20.30;42.30;;;;;;1822533;78;21130;-70
2022/04/14 06:37:57;;;;;;;6.12;4.15;;;20.40;42.30;;;;;;1819779;78;21168;-71
2022/04/14 06:40:24;;;;;;;6.00;4.12;;;20.40;42.30;;;;;;1821167;78;21696;-75
2022/04/14 06:42:51;;;;;;;7.05;4.45;;;20.40;42.40;;;;;;1825875;77;21224;-75
2022/04/14 06:45:19;;;;;;;9.40;4.12;;;20.40;42.30;;;;;;1811591;77;21618;-75
2022/04/14 06:47:46;;;;;;;6.05;4.22;;;20.40;42.30;;;;;;1802356;79;21129;-76
2022/04/14 06:50:13;;;;;;;7.67;4.80;;;20.40;42.30;;;;;;1803431;79;21981;-75
2022/04/14 06:52:41;;;;;;;5.67;4.67;;;20.40;42.30;;;;;;1802831;79;21102;-73
2022/04/14 06:55:09;;;;;;;9.75;4.50;;;20.40;42.30;;;;;;1803372;79;21421;-73
2022/04/14 06:57:36;;;;;;;7.83;4.70;;;20.40;42.30;;;;;;1803816;78;21087;-79
2022/04/14 07:00:05;;;;;;;5.83;4.47;;;20.40;42.50;;;;;;1803454;78;21181;-69
2022/04/14 07:02:32;;;;;;;5.65;4.08;;;20.40;42.50;;;;;;1802685;79;21173;-73
2022/04/14 07:04:59;;;;;;;6.03;4.55;;;20.40;42.40;;;;;;1802865;79;21102;-71
2022/04/14 07:07:27;;;;;;;6.62;4.37;;;20.40;42.40;;;;;;1803268;79;21125;-74
2022/04/14 07:09:54;;;;;;;6.87;5.10;;;20.40;42.40;;;;;;1803017;79;21624;-74
2022/04/14 07:12:21;;;;;;;8.73;4.95;;;20.40;42.40;;;;;;1802856;79;21157;-76
2022/04/14 07:14:49;;;;;;;11.00;4.40;;;20.40;42.40;;;;;;1802798;79;22189;-75
2022/04/14 07:17:20;;;;;;;5.67;4.17;;;20.50;42.50;;;;;;1802736;79;21192;-71
2022/04/14 07:19:46;;;;;;;5.75;4.15;;;20.40;42.40;;;;;;1801787;79;21157;-74
2022/04/14 07:22:18;;;;;;;6.55;4.60;;;20.50;42.60;;;;;;1802341;79;21675;-72
2022/04/14 07:24:50;;;;;;;5.40;3.80;;;20.40;42.40;;;;;;1802593;79;21126;-74
2022/04/14 07:27:21;;;;;;;7.10;4.58;;;20.50;42.50;;;;;;1802805;79;21730;-73
2022/04/14 07:29:49;;;;;;;6.10;4.00;;;20.50;42.50;;;;;;1802853;79;21197;-75
2022/04/14 07:32:16;;;;;;;7.65;5.08;;;20.50;42.50;;;;;;1803115;79;21162;-74
2022/04/14 07:34:43;;;;;;;7.75;4.85;;;20.50;42.50;;;;;;1802594;79;21079;-74
2022/04/14 07:37:11;;;;;;;5.15;4.40;;;20.40;42.50;;;;;;1802456;79;21107;-73
2022/04/14 07:39:38;;;;;;;7.70;4.40;;;20.40;42.50;;;;;;1802782;79;21165;-74
2022/04/14 07:42:06;;;;;;;10.95;4.65;;;20.40;42.70;;;;;;1803033;79;21182;-75
2022/04/14 07:44:33;;;;;;;5.83;4.53;;;20.50;42.80;;;;;;1803005;79;21126;-76
2022/04/14 07:47:01;;;;;;;6.35;4.90;;;20.50;42.90;;;;;;1802831;79;21692;-74
2022/04/14 07:49:28;;;;;;;7.90;4.70;;;20.40;42.90;;;;;;1802982;79;21133;-73
2022/04/14 07:51:55;;;;;;;8.23;5.00;;;20.40;42.90;;;;;;1802905;79;21158;-75
2022/04/14 07:54:23;;;;;;;8.08;5.20;;;20.40;42.90;;;;;;1802871;79;21286;-75
2022/04/14 07:56:50;;;;;;;6.42;4.30;;;20.50;43.10;;;;;;1802949;79;21129;-74
2022/04/14 07:59:17;;;;;;;7.97;4.83;;;20.50;43.10;;;;;;1803147;79;21387;-72
2022/04/14 08:01:45;;;;;;;7.25;4.35;;;20.50;43.10;;;;;;1803070;78;21177;-71
2022/04/14 08:04:12;;;;;;;6.35;4.67;;;20.50;43.10;;;;;;1802842;79;21091;-71
2022/04/14 08:06:40;;;;;;;11.08;5.50;;;20.50;43.10;;;;;;1802879;79;21200;-73
2022/04/14 08:09:07;;;;;;;7.00;4.72;;;20.60;43.20;;;;;;1803147;79;21145;-74
2022/04/14 08:11:34;;;;;;;9.98;4.83;;;20.50;43.70;;;;;;1802918;79;21149;-73
2022/04/14 08:14:01;;;;;;;7.15;4.83;;;20.50;43.10;;;;;;1802905;79;21233;-70
2022/04/14 08:16:29;;;;;;;7.53;5.35;;;20.50;43.70;;;;;;1802574;79;21138;-70
2022/04/14 08:18:56;;;;;;;7.28;4.60;;;20.50;43.20;;;;;;1802546;79;21158;-75
2022/04/14 08:21:24;;;;;;;12.05;5.25;;;20.50;43.30;;;;;;1802965;79;21118;-67
2022/04/14 08:23:53;;;;;;;9.48;4.70;;;20.50;43.20;;;;;;1802922;79;21243;-74
2022/04/14 08:26:21;;;;;;;7.37;4.90;;;20.50;43.30;;;;;;1802968;79;21157;-70
2022/04/14 08:28:49;;;;;;;9.43;5.05;;;20.50;43.30;;;;;;1803361;79;21982;-73
2022/04/14 08:31:16;;;;;;;10.98;5.17;;;20.60;43.30;;;;;;1802707;79;21134;-74
2022/04/14 08:33:44;;;;;;;9.08;5.55;;;20.50;43.20;;;;;;1802769;79;21143;-72
2022/04/14 08:36:16;;;;;;;14.18;5.37;;;20.60;43.40;;;;;;1802362;79;21126;-75
2022/04/14 08:38:43;;;;;;;9.08;5.40;;;20.60;43.40;;;;;;1801373;79;21122;-69
2022/04/14 08:41:11;;;;;;;8.35;4.75;;;20.60;43.40;;;;;;1802189;79;21118;-67
2022/04/14 08:43:38;;;;;;;9.90;5.25;;;20.60;43.40;;;;;;1801783;79;21231;-68
2022/04/14 08:46:06;;;;;;;6.75;4.90;;;20.60;43.40;;;;;;1807505;79;21247;-72
2022/04/14 08:48:35;;;;;;;6.90;4.97;;;20.60;43.40;;;;;;1808273;79;21142;-70
2022/04/14 08:51:03;;;;;;;7.37;5.45;;;20.60;43.50;;;;;;1809652;79;21164;-75
2022/04/14 08:53:30;;;;;;;10.53;5.95;;;20.60;44.10;;;;;;1778698;79;21161;-72
2022/04/14 08:55:57;;;;;;;8.13;5.55;;;20.60;43.40;;;;;;1807248;79;21145;-71
2022/04/14 08:58:29;;;;;;;11.05;6.37;;;20.60;43.50;;;;;;1786501;78;21167;-67
2022/04/14 09:00:55;;;;;;;9.60;5.85;;;20.60;43.50;;;;;;1813297;77;21249;-72
2022/04/14 09:03:25;;;;;;;8.58;5.40;;;20.70;43.50;;;;;;1798651;79;21146;-74
2022/04/14 09:05:51;;;;;;;9.68;5.62;;;20.70;43.60;;;;;;1802125;79;21531;-75
2022/04/14 09:08:19;;;;;;;9.38;5.55;;;20.70;43.50;;;;;;1802994;79;21047;-72
2022/04/14 09:10:46;;;;;;;8.90;5.45;;;20.70;44.10;;;;;;1802582;79;21607;-69
2022/04/14 09:13:14;;;;;;;8.43;5.28;;;20.70;43.50;;;;;;1803317;79;21123;-73
2022/04/14 09:15:41;;;;;;;9.38;6.37;;;20.70;43.50;;;;;;1799255;79;21125;-73
2022/04/14 09:18:09;;;;;;;11.25;5.03;;;20.70;43.50;;;;;;1801690;79;21731;-70
2022/04/14 09:20:38;;;;;;;8.45;5.65;;;20.70;43.50;;;;;;1802302;79;21188;-74
2022/04/14 09:23:29;;;;;;;8.98;5.47;;;20.60;43.40;;;;;;1802470;79;21157;-71
2022/04/14 09:26:11;;;;;;;9.60;5.53;;;20.70;43.50;;;;;;1801550;79;21114;-71
2022/04/14 09:28:34;;;;;;;11.12;5.67;;;20.60;43.40;;;;;;1801912;79;21134;-73
2022/04/14 09:31:11;;;;;;;10.00;5.12;;;20.70;43.50;;;;;;1803049;79;21533;-73
2022/04/14 09:33:46;;;;;;;7.62;5.22;;;20.70;43.50;;;;;;1803228;79;21228;-74
2022/04/14 09:36:20;;;;;;;10.82;5.72;;;20.70;43.50;;;;;;1803857;79;21631;-73
2022/04/14 09:39:01;;;;;;;7.95;5.60;;;20.70;43.60;;;;;;1803439;79;21180;-72
2022/04/14 09:41:32;;;;;;;;;;;20.70;43.80;;;;;;1805977;79;21196;-71
2022/04/14 09:44:02;;;;;;;13.70;5.58;;;20.70;43.50;;;;;;1803178;79;20251;-74
2022/04/14 09:46:30;;;;;;;10.80;5.62;;;20.70;43.70;;;;;;1798988;78;21139;-71
2022/04/14 09:49:03;;;;;;;10.95;5.87;;;20.80;44.50;;;;;;1800445;78;21569;-72
2022/04/14 09:51:30;;;;;;;11.65;6.75;;;20.80;44.00;;;;;;1800002;79;21130;-69
2022/04/14 09:54:17;;;;;;;6.92;4.80;;;20.80;44.30;;;;;;1802993;79;21153;-72
2022/04/14 09:56:58;;;;;;;11.12;5.40;;;20.80;44.40;;;;;;1805342;79;21165;-69
2022/04/14 09:59:29;;;;;;;8.38;6.17;;;20.80;44.20;;;;;;1797387;79;21581;-65
2022/04/14 10:02:16;;;;;;;9.45;5.17;;;20.80;44.30;;;;;;1811638;78;21204;-71
2022/04/14 10:04:44;;;;;;;15.32;5.50;;;20.80;44.40;;;;;;1828923;78;21114;-73
2022/04/14 10:07:13;;;;;;;14.70;5.97;;;20.80;45.00;;;;;;1827948;78;21078;-71
2022/04/14 10:09:43;;;;;;;9.05;5.40;;;20.80;44.40;;;;;;1827399;78;21191;-72
2022/04/14 10:12:20;;;;;;;8.73;5.47;;;20.80;44.30;;;;;;1828190;78;21573;-67
2022/04/14 10:15:09;;;;;;;10.45;5.50;;;20.80;44.40;;;;;;1828323;78;22260;-72
2022/04/14 10:17:41;;;;;;;21.25;7.45;;;20.80;44.40;;;;;;1828268;78;21550;-71
2022/04/14 10:20:07;;;;;;;11.48;5.83;;;20.80;44.40;;;;;;1827201;78;21573;-72
2022/04/14 10:22:35;;;;;;;9.68;5.42;;;20.80;44.20;;;;;;1828594;78;21757;-71
2022/04/14 10:25:03;;;;;;;9.05;6.00;;;20.90;44.30;;;;;;1840620;78;21204;-71
2022/04/14 10:27:33;;;;;;;11.40;5.97;;;20.90;44.40;;;;;;1843644;77;21184;-68
2022/04/14 10:29:59;;;;;;;9.33;6.10;;;20.90;44.60;;;;;;1843244;77;21096;-67
2022/04/14 10:32:27;;;;;;;9.33;5.75;;;20.90;44.70;;;;;;1843189;78;21524;-71
2022/04/14 10:34:57;;;;;;;11.43;5.15;;;20.90;44.60;;;;;;1843374;77;21146;-69
2022/04/14 10:37:27;;;;;;;12.78;5.60;;;20.90;44.80;;;;;;1843171;77;21142;-65
2022/04/14 10:39:55;;;;;;;11.35;5.33;;;20.90;44.80;;;;;;1839847;77;21161;-67
2022/04/14 10:42:27;;;;;;;8.55;5.80;;;20.90;44.70;;;;;;1843280;76;21142;-68
2022/04/14 10:44:54;;;;;;;9.63;5.83;;;20.90;44.80;;;;;;1843196;77;21117;-64
2022/04/14 10:47:56;;;;;;;8.70;5.72;;;20.90;44.90;;;;;;1843001;77;21184;-66
2022/04/14 10:50:24;;;;;;;;;;;21.00;45.00;;;;;;1844764;77;21216;-67
2022/04/14 10:53:12;;;;;;;13.43;6.47;;;20.90;44.70;;;;;;1841829;78;20455;-68
2022/04/14 10:55:47;;;;;;;11.05;6.95;;;20.90;44.90;;;;;;1816764;77;21110;-71
2022/04/14 10:58:39;;;;;;;11.95;6.75;;;20.90;45.10;;;;;;1843200;77;21109;-66
2022/04/14 11:01:07;;;;;;;16.25;6.62;;;21.00;45.00;;;;;;1842538;77;21436;-63
2022/04/14 11:03:47;;;;;;;8.78;6.17;;;20.90;44.90;;;;;;1843456;77;22118;-63
2022/04/14 11:06:47;;;;;;;11.80;6.22;;;20.90;44.90;;;;;;1843585;77;21572;-62
2022/04/14 11:09:42;;;;;;;15.85;6.60;;;20.90;45.00;;;;;;1843416;77;21565;-62
2022/04/14 11:12:19;;;;;;;12.60;6.62;;;20.90;45.40;;;;;;1841300;77;21153;-64
2022/04/14 11:14:50;;;;;;;21.33;6.62;;;20.90;45.40;;;;;;1842540;77;21156;-65
2022/04/14 11:17:40;;;;;;;28.32;6.58;;;20.90;45.30;;;;;;1843052;77;21137;-65
2022/04/14 11:20:24;;;;;;;15.50;7.27;;;20.90;45.40;;;;;;1843210;77;21215;-64
2022/04/14 11:23:15;;;;;;;14.45;6.62;;;20.90;45.70;;;;;;1842961;76;21464;-64
2022/04/14 11:25:47;;;;;;;11.97;6.03;;;20.90;45.70;;;;;;1842347;77;21648;-66
2022/04/14 11:28:25;;;;;;;28.02;7.33;;;20.90;45.70;;;;;;1842996;77;21142;-64
2022/04/14 11:30:55;;;;;;;12.68;6.78;;;20.80;45.90;;;;;;1842909;77;21203;-65
2022/04/14 11:33:30;;;;;;;12.43;6.67;;;20.80;46.10;;;;;;1842219;78;21247;-65
2022/04/14 11:36:09;;;;;;;11.57;5.90;;;20.80;45.90;;;;;;1844464;77;21603;-65
2022/04/14 11:39:09;;;;;;;13.70;5.65;;;20.90;46.00;;;;;;1843689;77;21097;-65
2022/04/14 11:41:50;;;;;;;13.13;7.40;;;20.90;46.10;;;;;;1842863;78;21145;-64
2022/04/14 11:44:24;;;;;;;12.47;5.83;;;20.90;46.70;;;;;;1824603;76;21196;-64
2022/04/14 11:46:54;;;;;;;14.28;6.03;;;20.90;46.00;;;;;;1823206;76;21193;-64
2022/04/14 11:49:22;;;;;;;12.58;6.08;;;20.90;46.10;;;;;;1828844;77;21138;-65
2022/04/14 11:51:52;;;;;;;9.38;5.40;;;21.00;46.00;;;;;;1822162;77;21118;-65
2022/04/14 11:54:23;;;;;;;10.98;6.22;;;21.00;45.90;;;;;;1825406;77;21109;-64
2022/04/14 11:56:55;;;;;;;12.85;7.05;;;21.00;45.50;;;;;;1808363;78;22339;-65
2022/04/14 11:59:34;;;;;;;16.37;6.15;;;20.90;45.00;;;;;;1823351;77;21255;-64
2022/04/14 12:02:16;;;;;;;10.98;6.20;;;20.90;44.90;;;;;;1827692;76;21106;-65
2022/04/14 12:04:45;;;;;;;17.32;6.85;;;20.90;44.90;;;;;;1849161;76;21106;-65
2022/04/14 12:07:12;;;;;;;10.78;6.20;;;21.00;45.40;;;;;;1819991;76;21243;-63
2022/04/14 12:09:43;;;;;;;14.28;6.37;;;21.00;44.80;;;;;;1828978;77;21184;-65
2022/04/14 12:12:18;;;;;;;10.15;5.28;;;21.00;44.80;;;;;;1828670;76;21179;-64
2022/04/14 12:14:48;;;;;;;19.80;6.62;;;21.10;45.20;;;;;;1839356;76;21102;-63
2022/04/14 12:17:23;;;;;;;19.32;5.70;;;21.10;45.70;;;;;;1846216;76;21137;-65
2022/04/14 12:19:58;;;;;;;10.75;5.42;;;21.20;45.50;;;;;;1837820;77;21096;-67
2022/04/14 12:22:28;;;;;;;8.80;5.60;;;21.20;45.60;;;;;;1817391;77;21149;-66
2022/04/14 12:24:59;;;;;;;11.15;5.45;;;21.20;45.70;;;;;;1825829;78;21667;-66
2022/04/14 12:27:28;;;;;;;15.90;5.83;;;21.20;45.10;;;;;;1810791;79;21171;-64
2022/04/14 12:29:56;;;;;;;10.90;5.72;;;21.20;45.10;;;;;;1833636;78;21206;-64
2022/04/14 12:32:28;;;;;;;10.98;6.47;;;21.20;45.20;;;;;;1832632;78;21763;-66
2022/04/14 12:34:54;;;;;;;;;;;21.30;45.00;;;;;;1844513;76;21062;-64
2022/04/14 12:37:22;;;;;;;18.92;7.03;;;21.30;44.80;;;;;;1872021;76;20190;-65
2022/04/14 12:39:58;;;;;;;11.35;6.90;;;21.30;44.70;;;;;;1849039;76;21561;-65
2022/04/14 12:42:28;;;;;;;14.10;6.78;;;21.30;45.20;;;;;;1818443;77;21102;-65
2022/04/14 12:45:04;;;;;;;14.63;6.67;;;21.30;45.00;;;;;;1824184;77;21063;-67
2022/04/14 12:47:31;;;;;;;14.28;7.17;;;21.30;45.00;;;;;;1842134;77;21102;-65
2022/04/14 12:49:59;;;;;;;13.80;5.75;;;21.30;45.60;;;;;;1841770;78;21112;-64
2022/04/14 12:52:26;;;;;;;13.75;6.22;;;21.30;45.50;;;;;;1839068;78;21146;-66
2022/04/14 12:54:54;;;;;;;10.68;6.42;;;21.30;45.40;;;;;;1802402;79;21204;-65
2022/04/14 12:57:30;;;;;;;12.30;6.17;;;21.40;45.60;;;;;;1810207;78;21125;-63
2022/04/14 13:00:08;;;;;;;11.53;6.70;;;21.40;45.90;;;;;;1817152;77;21203;-61
2022/04/14 13:02:37;;;;;;;13.80;6.17;;;21.40;45.70;;;;;;1822474;77;21553;-60
2022/04/14 13:05:12;;;;;;;10.58;5.72;;;21.60;45.60;;;;;;1831153;77;21129;-61
2022/04/14 13:07:53;;;;;;;13.25;6.60;;;21.60;45.40;;;;;;1817393;77;21157;-62